sensor_id;sensor_type;location;lat;lon;timestamp;P1;P2;P0
46681;PMS5003;34101;53.430;-2.224;2022-07-23T00:01:39;19;19;
46681;PMS5003;34101;53.430;-2.224;2022-07-23T00:04:06;17;17;
46681;PMS5003;34101;53.430;-2.224;2022-07-23T00:06:33;18;18;
46681;PMS5003;34101;53.430;-2.224;2022-07-23T00:09:00;19;18;
46681;PMS5003;34101;53.430;-2.224;2022-07-23T00:11:28;19;19;
46681;PMS5003;34101;53.430;-2.224;2022-07-23T00:13:55;20;20;
46681;PMS5003;34101;53.430;-2.224;2022-07-23T00:16:22;18;18;
46681;PMS5003;34101;53.430;-2.224;2022-07-23T00:18:50;22;20;
46681;PMS5003;34101;53.430;-2.224;2022-07-23T00:21:17;20;19;
46681;PMS5003;34101;53.430;-2.224;2022-07-23T00:23:45;17;17;
46681;PMS5003;34101;53.430;-2.224;2022-07-23T00:26:12;20;20;
46681;PMS5003;34101;53.430;-2.224;2022-07-23T00:28:39;25;24;
46681;PMS5003;34101;53.430;-2.224;2022-07-23T00:31:06;19;19;
46681;PMS5003;34101;53.430;-2.224;2022-07-23T00:33:34;21;21;
46681;PMS5003;34101;53.430;-2.224;2022-07-23T00:36:01;23;23;
46681;PMS5003;34101;53.430;-2.224;2022-07-23T00:38:28;23;22;
46681;PMS5003;34101;53.430;-2.224;2022-07-23T00:40:55;19;18;
46681;PMS5003;34101;53.430;-2.224;2022-07-23T00:43:24;29;27;
46681;PMS5003;34101;53.430;-2.224;2022-07-23T00:45:51;22;22;
46681;PMS5003;34101;53.430;-2.224;2022-07-23T00:48:18;25;23;
46681;PMS5003;34101;53.430;-2.224;2022-07-23T00:50:45;25;25;
46681;PMS5003;34101;53.430;-2.224;2022-07-23T00:53:13;23;23;
46681;PMS5003;34101;53.430;-2.224;2022-07-23T00:55:41;22;22;
46681;PMS5003;34101;53.430;-2.224;2022-07-23T00:58:08;29;24;
46681;PMS5003;34101;53.430;-2.224;2022-07-23T01:00:35;23;23;
46681;PMS5003;34101;53.430;-2.224;2022-07-23T01:03:02;22;22;
46681;PMS5003;34101;53.430;-2.224;2022-07-23T01:05:30;22;22;
46681;PMS5003;34101;53.430;-2.224;2022-07-23T01:07:57;24;24;
46681;PMS5003;34101;53.430;-2.224;2022-07-23T01:10:25;26;25;
46681;PMS5003;34101;53.430;-2.224;2022-07-23T01:12:52;23;23;
46681;PMS5003;34101;53.430;-2.224;2022-07-23T01:15:20;26;25;
46681;PMS5003;34101;53.430;-2.224;2022-07-23T01:17:48;26;24;
46681;PMS5003;34101;53.430;-2.224;2022-07-23T01:20:15;25;23;
46681;PMS5003;34101;53.430;-2.224;2022-07-23T01:22:43;26;24;
46681;PMS5003;34101;53.430;-2.224;2022-07-23T01:25:12;27;26;
46681;PMS5003;34101;53.430;-2.224;2022-07-23T01:27:39;28;28;
46681;PMS5003;34101;53.430;-2.224;2022-07-23T01:30:07;25;23;
46681;PMS5003;34101;53.430;-2.224;2022-07-23T01:32:35;28;26;
46681;PMS5003;34101;53.430;-2.224;2022-07-23T01:35:03;26;26;
46681;PMS5003;34101;53.430;-2.224;2022-07-23T01:37:31;34;31;
46681;PMS5003;34101;53.430;-2.224;2022-07-23T01:39:59;32;31;
46681;PMS5003;34101;53.430;-2.224;2022-07-23T01:42:26;30;30;
46681;PMS5003;34101;53.430;-2.224;2022-07-23T01:44:54;29;28;
46681;PMS5003;34101;53.430;-2.224;2022-07-23T01:47:22;32;32;
46681;PMS5003;34101;53.430;-2.224;2022-07-23T01:49:49;29;29;
46681;PMS5003;34101;53.430;-2.224;2022-07-23T01:52:16;36;34;
46681;PMS5003;34101;53.430;-2.224;2022-07-23T01:54:43;31;28;
46681;PMS5003;34101;53.430;-2.224;2022-07-23T01:57:10;30;28;
46681;PMS5003;34101;53.430;-2.224;2022-07-23T01:59:38;33;33;
46681;PMS5003;34101;53.430;-2.224;2022-07-23T02:02:05;25;25;
46681;PMS5003;34101;53.430;-2.224;2022-07-23T02:04:33;31;30;
46681;PMS5003;34101;53.430;-2.224;2022-07-23T02:07:00;28;27;
46681;PMS5003;34101;53.430;-2.224;2022-07-23T02:09:27;32;28;
46681;PMS5003;34101;53.430;-2.224;2022-07-23T02:11:55;30;28;
46681;PMS5003;34101;53.430;-2.224;2022-07-23T02:14:22;30;30;
46681;PMS5003;34101;53.430;-2.224;2022-07-23T02:16:49;26;26;
46681;PMS5003;34101;53.430;-2.224;2022-07-23T02:19:17;35;33;
46681;PMS5003;34101;53.430;-2.224;2022-07-23T02:21:44;30;29;
46681;PMS5003;34101;53.430;-2.224;2022-07-23T02:24:11;31;30;
46681;PMS5003;34101;53.430;-2.224;2022-07-23T02:26:38;35;32;
46681;PMS5003;34101;53.430;-2.224;2022-07-23T02:29:06;28;25;
46681;PMS5003;34101;53.430;-2.224;2022-07-23T02:31:33;28;28;
46681;PMS5003;34101;53.430;-2.224;2022-07-23T02:34:01;26;26;
46681;PMS5003;34101;53.430;-2.224;2022-07-23T02:36:28;31;29;
46681;PMS5003;34101;53.430;-2.224;2022-07-23T02:38:55;26;26;
46681;PMS5003;34101;53.430;-2.224;2022-07-23T02:41:23;31;28;
46681;PMS5003;34101;53.430;-2.224;2022-07-23T02:43:51;26;25;
46681;PMS5003;34101;53.430;-2.224;2022-07-23T02:46:18;29;27;
46681;PMS5003;34101;53.430;-2.224;2022-07-23T02:48:45;33;28;
46681;PMS5003;34101;53.430;-2.224;2022-07-23T02:51:12;25;25;
46681;PMS5003;34101;53.430;-2.224;2022-07-23T02:53:39;28;27;
46681;PMS5003;34101;53.430;-2.224;2022-07-23T02:56:07;26;25;
46681;PMS5003;34101;53.430;-2.224;2022-07-23T02:58:34;30;27;
46681;PMS5003;34101;53.430;-2.224;2022-07-23T03:01:01;33;28;
46681;PMS5003;34101;53.430;-2.224;2022-07-23T03:03:28;29;28;
46681;PMS5003;34101;53.430;-2.224;2022-07-23T03:05:56;29;29;
46681;PMS5003;34101;53.430;-2.224;2022-07-23T03:08:23;29;26;
46681;PMS5003;34101;53.430;-2.224;2022-07-23T03:10:50;30;28;
46681;PMS5003;34101;53.430;-2.224;2022-07-23T03:13:17;28;26;
46681;PMS5003;34101;53.430;-2.224;2022-07-23T03:15:44;29;28;
46681;PMS5003;34101;53.430;-2.224;2022-07-23T03:18:12;31;31;
46681;PMS5003;34101;53.430;-2.224;2022-07-23T03:20:39;30;26;
46681;PMS5003;34101;53.430;-2.224;2022-07-23T03:23:06;23;23;
46681;PMS5003;34101;53.430;-2.224;2022-07-23T03:25:33;29;27;
46681;PMS5003;34101;53.430;-2.224;2022-07-23T03:28:01;21;20;
46681;PMS5003;34101;53.430;-2.224;2022-07-23T03:30:28;25;21;
46681;PMS5003;34101;53.430;-2.224;2022-07-23T03:32:55;23;22;
46681;PMS5003;34101;53.430;-2.224;2022-07-23T03:35:22;32;30;
46681;PMS5003;34101;53.430;-2.224;2022-07-23T03:37:50;26;26;
46681;PMS5003;34101;53.430;-2.224;2022-07-23T03:40:17;25;23;
46681;PMS5003;34101;53.430;-2.224;2022-07-23T03:42:45;27;26;
46681;PMS5003;34101;53.430;-2.224;2022-07-23T03:45:12;27;26;
46681;PMS5003;34101;53.430;-2.224;2022-07-23T03:47:39;27;27;
46681;PMS5003;34101;53.430;-2.224;2022-07-23T03:50:07;28;27;
46681;PMS5003;34101;53.430;-2.224;2022-07-23T03:52:35;24;23;
46681;PMS5003;34101;53.430;-2.224;2022-07-23T03:55:03;23;23;
46681;PMS5003;34101;53.430;-2.224;2022-07-23T03:57:31;25;22;
46681;PMS5003;34101;53.430;-2.224;2022-07-23T03:59:58;23;23;
46681;PMS5003;34101;53.430;-2.224;2022-07-23T04:02:25;24;22;
46681;PMS5003;34101;53.430;-2.224;2022-07-23T04:04:53;25;23;
46681;PMS5003;34101;53.430;-2.224;2022-07-23T04:07:20;27;24;
46681;PMS5003;34101;53.430;-2.224;2022-07-23T04:09:47;25;23;
46681;PMS5003;34101;53.430;-2.224;2022-07-23T04:12:15;26;24;
46681;PMS5003;34101;53.430;-2.224;2022-07-23T04:14:42;25;24;
46681;PMS5003;34101;53.430;-2.224;2022-07-23T04:17:09;25;25;
46681;PMS5003;34101;53.430;-2.224;2022-07-23T04:19:37;24;24;
46681;PMS5003;34101;53.430;-2.224;2022-07-23T04:22:05;27;24;
46681;PMS5003;34101;53.430;-2.224;2022-07-23T04:24:33;24;23;
46681;PMS5003;34101;53.430;-2.224;2022-07-23T04:27:00;22;21;
46681;PMS5003;34101;53.430;-2.224;2022-07-23T04:29:27;24;22;
46681;PMS5003;34101;53.430;-2.224;2022-07-23T04:31:56;27;27;
46681;PMS5003;34101;53.430;-2.224;2022-07-23T04:34:23;30;27;
46681;PMS5003;34101;53.430;-2.224;2022-07-23T04:36:50;28;27;
46681;PMS5003;34101;53.430;-2.224;2022-07-23T04:39:17;25;25;
46681;PMS5003;34101;53.430;-2.224;2022-07-23T04:41:45;31;29;
46681;PMS5003;34101;53.430;-2.224;2022-07-23T04:44:12;21;20;
46681;PMS5003;34101;53.430;-2.224;2022-07-23T04:46:39;27;24;
46681;PMS5003;34101;53.430;-2.224;2022-07-23T04:49:07;24;23;
46681;PMS5003;34101;53.430;-2.224;2022-07-23T04:51:34;25;23;
46681;PMS5003;34101;53.430;-2.224;2022-07-23T04:54:02;27;27;
46681;PMS5003;34101;53.430;-2.224;2022-07-23T04:56:29;25;24;
46681;PMS5003;34101;53.430;-2.224;2022-07-23T04:58:56;23;22;
46681;PMS5003;34101;53.430;-2.224;2022-07-23T05:01:23;31;28;
46681;PMS5003;34101;53.430;-2.224;2022-07-23T05:03:50;21;21;
46681;PMS5003;34101;53.430;-2.224;2022-07-23T05:06:18;31;28;
46681;PMS5003;34101;53.430;-2.224;2022-07-23T05:08:45;28;26;
46681;PMS5003;34101;53.430;-2.224;2022-07-23T05:11:12;26;25;
46681;PMS5003;34101;53.430;-2.224;2022-07-23T05:13:39;25;25;
46681;PMS5003;34101;53.430;-2.224;2022-07-23T05:16:06;28;26;
46681;PMS5003;34101;53.430;-2.224;2022-07-23T05:18:34;24;23;
46681;PMS5003;34101;53.430;-2.224;2022-07-23T05:21:01;21;21;
46681;PMS5003;34101;53.430;-2.224;2022-07-23T05:23:28;24;24;
46681;PMS5003;34101;53.430;-2.224;2022-07-23T05:25:55;28;24;
46681;PMS5003;34101;53.430;-2.224;2022-07-23T05:28:22;24;22;
46681;PMS5003;34101;53.430;-2.224;2022-07-23T05:30:50;22;22;
46681;PMS5003;34101;53.430;-2.224;2022-07-23T05:33:18;27;26;
46681;PMS5003;34101;53.430;-2.224;2022-07-23T05:35:45;26;24;
46681;PMS5003;34101;53.430;-2.224;2022-07-23T05:38:12;31;28;
46681;PMS5003;34101;53.430;-2.224;2022-07-23T05:40:40;24;23;
46681;PMS5003;34101;53.430;-2.224;2022-07-23T05:43:07;21;21;
46681;PMS5003;34101;53.430;-2.224;2022-07-23T05:45:34;30;28;
46681;PMS5003;34101;53.430;-2.224;2022-07-23T05:48:02;22;22;
46681;PMS5003;34101;53.430;-2.224;2022-07-23T05:50:29;26;22;
46681;PMS5003;34101;53.430;-2.224;2022-07-23T05:52:57;26;25;
46681;PMS5003;34101;53.430;-2.224;2022-07-23T05:55:24;27;26;
46681;PMS5003;34101;53.430;-2.224;2022-07-23T05:57:51;28;28;
46681;PMS5003;34101;53.430;-2.224;2022-07-23T06:00:19;33;32;
46681;PMS5003;34101;53.430;-2.224;2022-07-23T06:02:46;28;25;
46681;PMS5003;34101;53.430;-2.224;2022-07-23T06:05:13;30;26;
46681;PMS5003;34101;53.430;-2.224;2022-07-23T06:07:41;29;26;
46681;PMS5003;34101;53.430;-2.224;2022-07-23T06:10:08;30;27;
46681;PMS5003;34101;53.430;-2.224;2022-07-23T06:12:36;26;26;
46681;PMS5003;34101;53.430;-2.224;2022-07-23T06:15:04;36;32;
46681;PMS5003;34101;53.430;-2.224;2022-07-23T06:17:33;37;34;
46681;PMS5003;34101;53.430;-2.224;2022-07-23T06:20:00;34;33;
46681;PMS5003;34101;53.430;-2.224;2022-07-23T06:22:28;31;30;
46681;PMS5003;34101;53.430;-2.224;2022-07-23T06:24:56;34;33;
46681;PMS5003;34101;53.430;-2.224;2022-07-23T06:27:25;29;26;
46681;PMS5003;34101;53.430;-2.224;2022-07-23T06:29:54;31;31;
46681;PMS5003;34101;53.430;-2.224;2022-07-23T06:32:22;30;29;
46681;PMS5003;34101;53.430;-2.224;2022-07-23T06:34:51;33;31;
46681;PMS5003;34101;53.430;-2.224;2022-07-23T06:37:20;30;28;
46681;PMS5003;34101;53.430;-2.224;2022-07-23T06:39:50;29;27;
46681;PMS5003;34101;53.430;-2.224;2022-07-23T06:42:19;32;31;
46681;PMS5003;34101;53.430;-2.224;2022-07-23T06:44:49;39;35;
46681;PMS5003;34101;53.430;-2.224;2022-07-23T06:47:20;32;31;
46681;PMS5003;34101;53.430;-2.224;2022-07-23T06:49:51;35;35;
46681;PMS5003;34101;53.430;-2.224;2022-07-23T06:52:28;34;33;
46681;PMS5003;34101;53.430;-2.224;2022-07-23T06:55:14;29;29;
46681;PMS5003;34101;53.430;-2.224;2022-07-23T06:57:48;32;32;
46681;PMS5003;34101;53.430;-2.224;2022-07-23T07:00:22;28;28;
46681;PMS5003;34101;53.430;-2.224;2022-07-23T07:03:35;27;27;
46681;PMS5003;34101;53.430;-2.224;2022-07-23T07:06:27;29;29;
46681;PMS5003;34101;53.430;-2.224;2022-07-23T07:09:11;22;22;
46681;PMS5003;34101;53.430;-2.224;2022-07-23T07:13:07;23;23;
46681;PMS5003;34101;53.430;-2.224;2022-07-23T07:43:27;19;19;
46681;PMS5003;34101;53.430;-2.224;2022-07-23T07:45:55;24;24;
46681;PMS5003;34101;53.430;-2.224;2022-07-23T07:48:23;19;17;
46681;PMS5003;34101;53.430;-2.224;2022-07-23T07:50:50;17;17;
46681;PMS5003;34101;53.430;-2.224;2022-07-23T07:53:18;18;18;
46681;PMS5003;34101;53.430;-2.224;2022-07-23T07:55:47;20;20;
46681;PMS5003;34101;53.430;-2.224;2022-07-23T07:58:16;18;18;
46681;PMS5003;34101;53.430;-2.224;2022-07-23T08:00:44;18;18;
46681;PMS5003;34101;53.430;-2.224;2022-07-23T08:03:13;18;18;
46681;PMS5003;34101;53.430;-2.224;2022-07-23T08:05:41;19;18;
46681;PMS5003;34101;53.430;-2.224;2022-07-23T08:08:10;17;17;
46681;PMS5003;34101;53.430;-2.224;2022-07-23T08:10:38;19;18;
46681;PMS5003;34101;53.430;-2.224;2022-07-23T08:13:05;20;18;
46681;PMS5003;34101;53.430;-2.224;2022-07-23T08:15:32;25;23;
46681;PMS5003;34101;53.430;-2.224;2022-07-23T08:18:00;15;15;
46681;PMS5003;34101;53.430;-2.224;2022-07-23T08:20:27;16;16;
46681;PMS5003;34101;53.430;-2.224;2022-07-23T08:22:56;16;16;
46681;PMS5003;34101;53.430;-2.224;2022-07-23T08:25:25;20;19;
46681;PMS5003;34101;53.430;-2.224;2022-07-23T08:27:55;20;19;
46681;PMS5003;34101;53.430;-2.224;2022-07-23T08:30:23;18;15;
46681;PMS5003;34101;53.430;-2.224;2022-07-23T08:32:52;20;18;
46681;PMS5003;34101;53.430;-2.224;2022-07-23T08:35:22;24;21;
46681;PMS5003;34101;53.430;-2.224;2022-07-23T08:37:52;20;20;
46681;PMS5003;34101;53.430;-2.224;2022-07-23T08:40:20;22;19;
46681;PMS5003;34101;53.430;-2.224;2022-07-23T08:42:49;22;22;
46681;PMS5003;34101;53.430;-2.224;2022-07-23T08:45:19;23;22;
46681;PMS5003;34101;53.430;-2.224;2022-07-23T08:47:48;26;26;
46681;PMS5003;34101;53.430;-2.224;2022-07-23T08:50:16;29;25;
46681;PMS5003;34101;53.430;-2.224;2022-07-23T08:52:44;25;24;
46681;PMS5003;34101;53.430;-2.224;2022-07-23T08:55:12;26;26;
46681;PMS5003;34101;53.430;-2.224;2022-07-23T08:57:39;22;21;
46681;PMS5003;34101;53.430;-2.224;2022-07-23T09:00:06;24;22;
46681;PMS5003;34101;53.430;-2.224;2022-07-23T09:02:38;24;22;
46681;PMS5003;34101;53.430;-2.224;2022-07-23T09:05:07;24;22;
46681;PMS5003;34101;53.430;-2.224;2022-07-23T09:07:35;27;24;
46681;PMS5003;34101;53.430;-2.224;2022-07-23T09:10:06;24;23;
46681;PMS5003;34101;53.430;-2.224;2022-07-23T09:12:35;23;23;
46681;PMS5003;34101;53.430;-2.224;2022-07-23T09:15:04;20;20;
46681;PMS5003;34101;53.430;-2.224;2022-07-23T09:17:38;23;22;
46681;PMS5003;34101;53.430;-2.224;2022-07-23T09:20:09;23;21;
46681;PMS5003;34101;53.430;-2.224;2022-07-23T09:22:37;23;23;
46681;PMS5003;34101;53.430;-2.224;2022-07-23T09:25:07;26;26;
46681;PMS5003;34101;53.430;-2.224;2022-07-23T09:27:53;20;19;
46681;PMS5003;34101;53.430;-2.224;2022-07-23T09:30:23;27;26;
46681;PMS5003;34101;53.430;-2.224;2022-07-23T09:33:08;22;22;
46681;PMS5003;34101;53.430;-2.224;2022-07-23T09:35:45;17;14;
46681;PMS5003;34101;53.430;-2.224;2022-07-23T09:38:13;14;14;
46681;PMS5003;34101;53.430;-2.224;2022-07-23T09:40:41;16;16;
46681;PMS5003;34101;53.430;-2.224;2022-07-23T09:43:09;17;16;
46681;PMS5003;34101;53.430;-2.224;2022-07-23T09:45:37;14;14;
46681;PMS5003;34101;53.430;-2.224;2022-07-23T09:48:10;16;13;
46681;PMS5003;34101;53.430;-2.224;2022-07-23T09:50:40;14;14;
46681;PMS5003;34101;53.430;-2.224;2022-07-23T09:53:12;14;13;
46681;PMS5003;34101;53.430;-2.224;2022-07-23T09:55:54;14;14;
46681;PMS5003;34101;53.430;-2.224;2022-07-23T09:59:05;14;12;
46681;PMS5003;34101;53.430;-2.224;2022-07-23T10:02:09;13;12;
46681;PMS5003;34101;53.430;-2.224;2022-07-23T10:06:22;10;10;
46681;PMS5003;34101;53.430;-2.224;2022-07-23T10:08:55;11;11;
46681;PMS5003;34101;53.430;-2.224;2022-07-23T10:12:16;8;8;
46681;PMS5003;34101;53.430;-2.224;2022-07-23T10:18:52;7;7;
46681;PMS5003;34101;53.430;-2.224;2022-07-23T10:21:24;7;7;
46681;PMS5003;34101;53.430;-2.224;2022-07-23T10:24:01;7;7;
46681;PMS5003;34101;53.430;-2.224;2022-07-23T10:26:41;5;5;
46681;PMS5003;34101;53.430;-2.224;2022-07-23T10:29:22;4;4;
46681;PMS5003;34101;53.430;-2.224;2022-07-23T10:32:05;6;6;
46681;PMS5003;34101;53.430;-2.224;2022-07-23T10:34:41;6;6;
46681;PMS5003;34101;53.430;-2.224;2022-07-23T10:37:21;7;7;
46681;PMS5003;34101;53.430;-2.224;2022-07-23T10:40:15;4;4;
46681;PMS5003;34101;53.430;-2.224;2022-07-23T10:42:43;5;5;
46681;PMS5003;34101;53.430;-2.224;2022-07-23T10:45:27;4;4;
46681;PMS5003;34101;53.430;-2.224;2022-07-23T10:48:11;4;4;
46681;PMS5003;34101;53.430;-2.224;2022-07-23T10:50:40;4;4;
46681;PMS5003;34101;53.430;-2.224;2022-07-23T10:53:12;3;3;
46681;PMS5003;34101;53.430;-2.224;2022-07-23T10:55:43;3;3;
46681;PMS5003;34101;53.430;-2.224;2022-07-23T10:58:17;2;2;
46681;PMS5003;34101;53.430;-2.224;2022-07-23T11:00:48;4;4;
46681;PMS5003;34101;53.430;-2.224;2022-07-23T11:03:33;5;4;
46681;PMS5003;34101;53.430;-2.224;2022-07-23T11:06:02;6;5;
46681;PMS5003;34101;53.430;-2.224;2022-07-23T11:08:29;6;6;
46681;PMS5003;34101;53.430;-2.224;2022-07-23T11:11:08;4;4;
46681;PMS5003;34101;53.430;-2.224;2022-07-23T11:13:41;6;6;
46681;PMS5003;34101;53.430;-2.224;2022-07-23T11:16:15;5;5;
46681;PMS5003;34101;53.430;-2.224;2022-07-23T11:18:56;5;5;
46681;PMS5003;34101;53.430;-2.224;2022-07-23T11:21:46;2;2;
46681;PMS5003;34101;53.430;-2.224;2022-07-23T11:24:17;4;4;
46681;PMS5003;34101;53.430;-2.224;2022-07-23T11:26:46;3;3;
46681;PMS5003;34101;53.430;-2.224;2022-07-23T11:29:49;5;4;
46681;PMS5003;34101;53.430;-2.224;2022-07-23T11:32:25;6;4;
46681;PMS5003;34101;53.430;-2.224;2022-07-23T11:34:56;5;4;
46681;PMS5003;34101;53.430;-2.224;2022-07-23T11:37:28;6;6;
46681;PMS5003;34101;53.430;-2.224;2022-07-23T11:39:58;4;4;
46681;PMS5003;34101;53.430;-2.224;2022-07-23T11:42:26;6;6;
46681;PMS5003;34101;53.430;-2.224;2022-07-23T11:44:53;5;5;
46681;PMS5003;34101;53.430;-2.224;2022-07-23T11:47:22;7;7;
46681;PMS5003;34101;53.430;-2.224;2022-07-23T11:49:52;6;6;
46681;PMS5003;34101;53.430;-2.224;2022-07-23T11:52:21;7;6;
46681;PMS5003;34101;53.430;-2.224;2022-07-23T11:54:50;6;6;
46681;PMS5003;34101;53.430;-2.224;2022-07-23T11:57:28;6;5;
46681;PMS5003;34101;53.430;-2.224;2022-07-23T12:04:42;5;5;
46681;PMS5003;34101;53.430;-2.224;2022-07-23T12:07:28;5;5;
46681;PMS5003;34101;53.430;-2.224;2022-07-23T12:09:58;7;7;
46681;PMS5003;34101;53.430;-2.224;2022-07-23T12:12:27;5;5;
46681;PMS5003;34101;53.430;-2.224;2022-07-23T12:15:01;7;7;
46681;PMS5003;34101;53.430;-2.224;2022-07-23T12:17:29;4;4;
46681;PMS5003;34101;53.430;-2.224;2022-07-23T12:19:59;5;5;
46681;PMS5003;34101;53.430;-2.224;2022-07-23T12:22:33;5;5;
46681;PMS5003;34101;53.430;-2.224;2022-07-23T12:25:03;5;5;
46681;PMS5003;34101;53.430;-2.224;2022-07-23T12:27:33;5;5;
46681;PMS5003;34101;53.430;-2.224;2022-07-23T12:30:34;8;6;
46681;PMS5003;34101;53.430;-2.224;2022-07-23T12:33:05;5;5;
46681;PMS5003;34101;53.430;-2.224;2022-07-23T12:35:35;5;5;
46681;PMS5003;34101;53.430;-2.224;2022-07-23T12:38:05;6;6;
46681;PMS5003;34101;53.430;-2.224;2022-07-23T12:40:34;4;4;
46681;PMS5003;34101;53.430;-2.224;2022-07-23T12:43:08;8;8;
46681;PMS5003;34101;53.430;-2.224;2022-07-23T12:45:45;7;7;
46681;PMS5003;34101;53.430;-2.224;2022-07-23T12:48:18;5;5;
46681;PMS5003;34101;53.430;-2.224;2022-07-23T12:50:56;9;9;
46681;PMS5003;34101;53.430;-2.224;2022-07-23T12:53:25;6;6;
46681;PMS5003;34101;53.430;-2.224;2022-07-23T12:55:59;6;6;
46681;PMS5003;34101;53.430;-2.224;2022-07-23T12:58:39;6;6;
46681;PMS5003;34101;53.430;-2.224;2022-07-23T13:01:07;8;8;
46681;PMS5003;34101;53.430;-2.224;2022-07-23T13:03:36;9;8;
46681;PMS5003;34101;53.430;-2.224;2022-07-23T13:06:06;7;7;
46681;PMS5003;34101;53.430;-2.224;2022-07-23T13:08:36;10;8;
46681;PMS5003;34101;53.430;-2.224;2022-07-23T13:11:05;6;6;
46681;PMS5003;34101;53.430;-2.224;2022-07-23T13:13:34;8;8;
46681;PMS5003;34101;53.430;-2.224;2022-07-23T13:16:01;6;6;
46681;PMS5003;34101;53.430;-2.224;2022-07-23T13:18:30;7;7;
46681;PMS5003;34101;53.430;-2.224;2022-07-23T13:20:58;7;7;
46681;PMS5003;34101;53.430;-2.224;2022-07-23T13:23:25;7;6;
46681;PMS5003;34101;53.430;-2.224;2022-07-23T13:25:54;6;6;
46681;PMS5003;34101;53.430;-2.224;2022-07-23T13:28:22;8;8;
46681;PMS5003;34101;53.430;-2.224;2022-07-23T13:30:50;6;6;
46681;PMS5003;34101;53.430;-2.224;2022-07-23T13:33:19;7;7;
46681;PMS5003;34101;53.430;-2.224;2022-07-23T13:35:48;8;8;
46681;PMS5003;34101;53.430;-2.224;2022-07-23T13:38:16;6;5;
46681;PMS5003;34101;53.430;-2.224;2022-07-23T13:40:44;7;7;
46681;PMS5003;34101;53.430;-2.224;2022-07-23T13:43:14;10;9;
46681;PMS5003;34101;53.430;-2.224;2022-07-23T13:45:43;7;7;
46681;PMS5003;34101;53.430;-2.224;2022-07-23T13:48:11;6;6;
46681;PMS5003;34101;53.430;-2.224;2022-07-23T13:50:39;9;9;
46681;PMS5003;34101;53.430;-2.224;2022-07-23T13:53:09;8;8;
46681;PMS5003;34101;53.430;-2.224;2022-07-23T13:55:38;10;10;
46681;PMS5003;34101;53.430;-2.224;2022-07-23T13:58:06;12;10;
46681;PMS5003;34101;53.430;-2.224;2022-07-23T14:00:35;11;11;
46681;PMS5003;34101;53.430;-2.224;2022-07-23T14:03:04;11;11;
46681;PMS5003;34101;53.430;-2.224;2022-07-23T14:05:31;8;8;
46681;PMS5003;34101;53.430;-2.224;2022-07-23T14:07:59;14;14;
46681;PMS5003;34101;53.430;-2.224;2022-07-23T14:10:26;10;10;
46681;PMS5003;34101;53.430;-2.224;2022-07-23T14:12:54;11;11;
46681;PMS5003;34101;53.430;-2.224;2022-07-23T14:15:21;12;11;
46681;PMS5003;34101;53.430;-2.224;2022-07-23T14:17:49;10;10;
46681;PMS5003;34101;53.430;-2.224;2022-07-23T14:20:17;10;10;
46681;PMS5003;34101;53.430;-2.224;2022-07-23T14:22:44;13;13;
46681;PMS5003;34101;53.430;-2.224;2022-07-23T14:25:12;11;11;
46681;PMS5003;34101;53.430;-2.224;2022-07-23T14:27:39;12;12;
46681;PMS5003;34101;53.430;-2.224;2022-07-23T14:30:12;14;13;
46681;PMS5003;34101;53.430;-2.224;2022-07-23T14:32:39;10;10;
46681;PMS5003;34101;53.430;-2.224;2022-07-23T14:35:07;14;13;
46681;PMS5003;34101;53.430;-2.224;2022-07-23T14:37:34;11;11;
46681;PMS5003;34101;53.430;-2.224;2022-07-23T14:40:02;11;11;
46681;PMS5003;34101;53.430;-2.224;2022-07-23T14:42:30;14;12;
46681;PMS5003;34101;53.430;-2.224;2022-07-23T14:44:57;13;12;
46681;PMS5003;34101;53.430;-2.224;2022-07-23T14:47:25;16;16;
46681;PMS5003;34101;53.430;-2.224;2022-07-23T14:49:52;14;14;
46681;PMS5003;34101;53.430;-2.224;2022-07-23T14:52:20;11;11;
46681;PMS5003;34101;53.430;-2.224;2022-07-23T14:54:48;14;13;
46681;PMS5003;34101;53.430;-2.224;2022-07-23T14:57:15;15;11;
46681;PMS5003;34101;53.430;-2.224;2022-07-23T14:59:43;12;12;
46681;PMS5003;34101;53.430;-2.224;2022-07-23T15:02:10;11;9;
46681;PMS5003;34101;53.430;-2.224;2022-07-23T15:04:38;10;10;
46681;PMS5003;34101;53.430;-2.224;2022-07-23T15:07:05;9;9;
46681;PMS5003;34101;53.430;-2.224;2022-07-23T15:09:33;9;9;
46681;PMS5003;34101;53.430;-2.224;2022-07-23T15:12:00;8;8;
46681;PMS5003;34101;53.430;-2.224;2022-07-23T15:14:28;6;6;
46681;PMS5003;34101;53.430;-2.224;2022-07-23T15:16:55;10;10;
46681;PMS5003;34101;53.430;-2.224;2022-07-23T15:19:23;10;8;
46681;PMS5003;34101;53.430;-2.224;2022-07-23T15:21:51;8;8;
46681;PMS5003;34101;53.430;-2.224;2022-07-23T15:24:18;9;7;
46681;PMS5003;34101;53.430;-2.224;2022-07-23T15:26:46;12;8;
46681;PMS5003;34101;53.430;-2.224;2022-07-23T15:29:13;6;6;
46681;PMS5003;34101;53.430;-2.224;2022-07-23T15:31:40;7;6;
46681;PMS5003;34101;53.430;-2.224;2022-07-23T15:34:08;10;7;
46681;PMS5003;34101;53.430;-2.224;2022-07-23T15:36:35;7;7;
46681;PMS5003;34101;53.430;-2.224;2022-07-23T15:39:03;10;10;
46681;PMS5003;34101;53.430;-2.224;2022-07-23T15:41:31;6;6;
46681;PMS5003;34101;53.430;-2.224;2022-07-23T15:43:59;10;10;
46681;PMS5003;34101;53.430;-2.224;2022-07-23T15:46:26;7;7;
46681;PMS5003;34101;53.430;-2.224;2022-07-23T15:48:55;9;8;
46681;PMS5003;34101;53.430;-2.224;2022-07-23T15:51:22;8;7;
46681;PMS5003;34101;53.430;-2.224;2022-07-23T15:53:49;7;7;
46681;PMS5003;34101;53.430;-2.224;2022-07-23T15:56:17;7;7;
46681;PMS5003;34101;53.430;-2.224;2022-07-23T15:58:44;11;9;
46681;PMS5003;34101;53.430;-2.224;2022-07-23T16:01:11;7;7;
46681;PMS5003;34101;53.430;-2.224;2022-07-23T16:03:39;9;9;
46681;PMS5003;34101;53.430;-2.224;2022-07-23T16:06:06;10;10;
46681;PMS5003;34101;53.430;-2.224;2022-07-23T16:08:34;12;10;
46681;PMS5003;34101;53.430;-2.224;2022-07-23T16:11:01;10;10;
46681;PMS5003;34101;53.430;-2.224;2022-07-23T16:13:28;11;11;
46681;PMS5003;34101;53.430;-2.224;2022-07-23T16:15:56;8;8;
46681;PMS5003;34101;53.430;-2.224;2022-07-23T16:18:23;9;9;
46681;PMS5003;34101;53.430;-2.224;2022-07-23T16:20:51;9;9;
46681;PMS5003;34101;53.430;-2.224;2022-07-23T16:23:18;7;7;
46681;PMS5003;34101;53.430;-2.224;2022-07-23T16:25:46;8;7;
46681;PMS5003;34101;53.430;-2.224;2022-07-23T16:28:13;12;12;
46681;PMS5003;34101;53.430;-2.224;2022-07-23T16:30:41;8;8;
46681;PMS5003;34101;53.430;-2.224;2022-07-23T16:33:08;11;10;
46681;PMS5003;34101;53.430;-2.224;2022-07-23T16:35:36;10;10;
46681;PMS5003;34101;53.430;-2.224;2022-07-23T16:38:03;9;9;
46681;PMS5003;34101;53.430;-2.224;2022-07-23T16:40:31;10;10;
46681;PMS5003;34101;53.430;-2.224;2022-07-23T16:43:00;9;9;
46681;PMS5003;34101;53.430;-2.224;2022-07-23T16:45:27;9;9;
46681;PMS5003;34101;53.430;-2.224;2022-07-23T16:47:55;11;11;
46681;PMS5003;34101;53.430;-2.224;2022-07-23T16:50:23;10;10;
46681;PMS5003;34101;53.430;-2.224;2022-07-23T16:52:50;12;10;
46681;PMS5003;34101;53.430;-2.224;2022-07-23T16:55:17;13;13;
46681;PMS5003;34101;53.430;-2.224;2022-07-23T16:57:44;11;10;
46681;PMS5003;34101;53.430;-2.224;2022-07-23T17:00:11;13;13;
46681;PMS5003;34101;53.430;-2.224;2022-07-23T17:02:39;10;10;
46681;PMS5003;34101;53.430;-2.224;2022-07-23T17:05:07;11;11;
46681;PMS5003;34101;53.430;-2.224;2022-07-23T17:07:35;12;12;